Burin Sea — VCXN — position and weather

sailwx.info

Track history (hours):
 
Tides and Currents Weather Stations Pressure Air Temp Water Temp Dewpoint Dewpoint Depression Visibility Wind Speed Wind Dir Waves Ship Positions

Burin Sea

Last reported at 2015-Aug-25 18:25 UTC. Time now 2015-Aug-31 17:46 UTC.
Position N 47°33' W 052°35'.

Length 82 m; draft 5.5 m.

Type: Tug. MMSI: 316300000.

Date/timePositionNaut miles runAvg speedWind from/ knotsBaromVisibWave heightAir tempDewpointWater temp
2015-Aug-25 18:25N 47°33' W 052°35'5 1.6
2015-Aug-25 15:08N 47°34' W 052°42'0 0.0
2015-Aug-25 14:15N 47°34' W 052°42'0 0.0
2015-Aug-25 13:15N 47°34' W 052°42'0 0.0
2015-Aug-25 12:22N 47°34' W 052°42'0 0.0
2015-Aug-25 11:29N 47°34' W 052°42'0 0.0
2015-Aug-25 10:29N 47°34' W 052°42'0 0.0
2015-Aug-25 09:30N 47°34' W 052°42'0 0.0
2015-Aug-25 08:19N 47°34' W 052°42'0 0.0
2015-Aug-25 07:31N 47°34' W 052°42'0 0.0
2015-Aug-25 06:32N 47°34' W 052°42'0 0.0
2015-Aug-25 05:33N 47°34' W 052°42'0 0.0
2015-Aug-25 04:33N 47°34' W 052°42'0 0.0
2015-Aug-25 03:22N 47°34' W 052°42'0 0.0
2015-Aug-25 02:29N 47°34' W 052°42'0 0.0
2015-Aug-25 01:29N 47°34' W 052°42'0 0.0
2015-Aug-25 00:30N 47°34' W 052°42'0 0.0
2015-Aug-24 23:31N 47°34' W 052°42'0 0.0
2015-Aug-24 22:25N 47°34' W 052°42'0 0.0
2015-Aug-24 21:32N 47°34' W 052°42'0 0.0
2015-Aug-24 20:27N 47°34' W 052°42'0 0.0
2015-Aug-24 19:21N 47°34' W 052°42'0 0.0
2015-Aug-24 18:28N 47°34' W 052°42'0 0.0
2015-Aug-24 17:17N 47°34' W 052°42'0 0.0
2015-Aug-24 16:23N 47°34' W 052°42'0 0.3
2015-Aug-24 15:18N 47°34' W 052°42'0 0.0
2015-Aug-24 14:25N 47°34' W 052°42'0 0.1
2015-Aug-24 10:27N 47°34' W 052°42'0 0.0
2015-Aug-24 08:29N 47°34' W 052°42'0 0.0
2015-Aug-24 07:29N 47°34' W 052°42'0 0.0
2015-Aug-24 06:24N 47°34' W 052°42'0 0.0
2015-Aug-24 05:31N 47°34' W 052°42'0 0.0
2015-Aug-24 04:20N 47°34' W 052°42'0 0.0
2015-Aug-24 03:32N 47°34' W 052°42'0 0.0
2015-Aug-24 02:32N 47°34' W 052°42'9 8.5
2015-Aug-24 01:29N 47°31' W 052°29'8 0.2
2015-Aug-21 23:25N 47°28' W 052°18'1111.6
2015-Aug-21 22:31N 47°32' W 052°33'7 3.3
2015-Aug-21 20:29N 47°34' W 052°42'0 0.0
2015-Aug-21 18:18N 47°34' W 052°42'0 0.0
2015-Aug-21 13:10N 47°34' W 052°42'0 0.0
2015-Aug-21 10:29N 47°34' W 052°42'0 0.0
2015-Aug-21 09:30N 47°34' W 052°42'0 0.0
2015-Aug-21 08:31N 47°34' W 052°42'0 0.0
2015-Aug-21 07:14N 47°34' W 052°42'0 0.0
2015-Aug-21 06:32N 47°34' W 052°42'0 0.0
2015-Aug-21 05:33N 47°34' W 052°42'0 0.0
2015-Aug-21 04:27N 47°34' W 052°42'0 0.0
2015-Aug-21 03:28N 47°34' W 052°42'0 0.0
2015-Aug-21 02:17N 47°34' W 052°42'0 0.0
2015-Aug-21 01:29N 47°34' W 052°42'0 0.0
2015-Aug-20 22:31N 47°34' W 052°42'0 0.0
2015-Aug-20 21:14N 47°34' W 052°42'0 0.0
2015-Aug-20 20:09N 47°34' W 052°42'0 0.0
2015-Aug-20 19:33N 47°34' W 052°42'0 0.0
2015-Aug-20 18:22N 47°34' W 052°42'0 0.0
2015-Aug-20 15:30N 47°34' W 052°42'0 0.0
2015-Aug-20 14:25N 47°34' W 052°42'0 0.0
2015-Aug-20 13:31N 47°34' W 052°42'0 0.0
2015-Aug-20 10:10N 47°34' W 052°42'0 0.0
2015-Aug-20 09:28N 47°34' W 052°42'0 0.0
2015-Aug-20 08:17N 47°34' W 052°42'0 0.0
2015-Aug-20 07:30N 47°34' W 052°42'0 0.0
2015-Aug-20 06:30N 47°34' W 052°42'0 0.0
2015-Aug-20 05:31N 47°34' W 052°42'0 0.0
2015-Aug-20 04:14N 47°34' W 052°42'0 0.0
2015-Aug-20 03:32N 47°34' W 052°42'0 0.1
2015-Aug-20 02:30N 47°34' W 052°42'1010.8
2015-Aug-20 01:32N 47°31' W 052°27'  
2015-Aug-15 22:11N 47°27' W 052°15'913.3
2015-Aug-15 21:31N 47°31' W 052°27'1110.8
2015-Aug-15 20:32N 47°34' W 052°42'0 0.0
2015-Aug-15 19:33N 47°34' W 052°42'  
Track history (hours):
 
Tides and Currents Weather Stations Pressure Air Temp Water Temp Dewpoint Dewpoint Depression Visibility Wind Speed Wind Dir Waves Ship Positions

Burin Sea

Last reported at 2015-Aug-25 18:25 UTC. Time now 2015-Aug-31 17:46 UTC.
Position N 47°33' W 052°35'.

Length 82 m; draft 5.5 m.

Type: Tug. MMSI: 316300000.

Date/timePositionNaut miles runAvg speedWind from/ knotsBaromVisibWave heightAir tempDewpointWater temp
2015-Aug-25 18:25N 47°33' W 052°35'5 1.6
2015-Aug-25 15:08N 47°34' W 052°42'0 0.0
2015-Aug-25 14:15N 47°34' W 052°42'0 0.0
2015-Aug-25 13:15N 47°34' W 052°42'0 0.0
2015-Aug-25 12:22N 47°34' W 052°42'0 0.0
2015-Aug-25 11:29N 47°34' W 052°42'0 0.0
2015-Aug-25 10:29N 47°34' W 052°42'0 0.0
2015-Aug-25 09:30N 47°34' W 052°42'0 0.0
2015-Aug-25 08:19N 47°34' W 052°42'0 0.0
2015-Aug-25 07:31N 47°34' W 052°42'0 0.0
2015-Aug-25 06:32N 47°34' W 052°42'0 0.0
2015-Aug-25 05:33N 47°34' W 052°42'0 0.0
2015-Aug-25 04:33N 47°34' W 052°42'0 0.0
2015-Aug-25 03:22N 47°34' W 052°42'0 0.0
2015-Aug-25 02:29N 47°34' W 052°42'0 0.0
2015-Aug-25 01:29N 47°34' W 052°42'0 0.0
2015-Aug-25 00:30N 47°34' W 052°42'0 0.0
2015-Aug-24 23:31N 47°34' W 052°42'0 0.0
2015-Aug-24 22:25N 47°34' W 052°42'0 0.0
2015-Aug-24 21:32N 47°34' W 052°42'0 0.0
2015-Aug-24 20:27N 47°34' W 052°42'0 0.0
2015-Aug-24 19:21N 47°34' W 052°42'0 0.0
2015-Aug-24 18:28N 47°34' W 052°42'0 0.0
2015-Aug-24 17:17N 47°34' W 052°42'0 0.0
2015-Aug-24 16:23N 47°34' W 052°42'0 0.3
2015-Aug-24 15:18N 47°34' W 052°42'0 0.0
2015-Aug-24 14:25N 47°34' W 052°42'0 0.1
2015-Aug-24 10:27N 47°34' W 052°42'0 0.0
2015-Aug-24 08:29N 47°34' W 052°42'0 0.0
2015-Aug-24 07:29N 47°34' W 052°42'0 0.0
2015-Aug-24 06:24N 47°34' W 052°42'0 0.0
2015-Aug-24 05:31N 47°34' W 052°42'0 0.0
2015-Aug-24 04:20N 47°34' W 052°42'0 0.0
2015-Aug-24 03:32N 47°34' W 052°42'0 0.0
2015-Aug-24 02:32N 47°34' W 052°42'9 8.5
2015-Aug-24 01:29N 47°31' W 052°29'8 0.2
2015-Aug-21 23:25N 47°28' W 052°18'1111.6
2015-Aug-21 22:31N 47°32' W 052°33'7 3.3
2015-Aug-21 20:29N 47°34' W 052°42'0 0.0
2015-Aug-21 18:18N 47°34' W 052°42'0 0.0
2015-Aug-21 13:10N 47°34' W 052°42'0 0.0
2015-Aug-21 10:29N 47°34' W 052°42'0 0.0
2015-Aug-21 09:30N 47°34' W 052°42'0 0.0
2015-Aug-21 08:31N 47°34' W 052°42'0 0.0
2015-Aug-21 07:14N 47°34' W 052°42'0 0.0
2015-Aug-21 06:32N 47°34' W 052°42'0 0.0
2015-Aug-21 05:33N 47°34' W 052°42'0 0.0
2015-Aug-21 04:27N 47°34' W 052°42'0 0.0
2015-Aug-21 03:28N 47°34' W 052°42'0 0.0
2015-Aug-21 02:17N 47°34' W 052°42'0 0.0
2015-Aug-21 01:29N 47°34' W 052°42'0 0.0
2015-Aug-20 22:31N 47°34' W 052°42'0 0.0
2015-Aug-20 21:14N 47°34' W 052°42'0 0.0
2015-Aug-20 20:09N 47°34' W 052°42'0 0.0
2015-Aug-20 19:33N 47°34' W 052°42'0 0.0
2015-Aug-20 18:22N 47°34' W 052°42'0 0.0
2015-Aug-20 15:30N 47°34' W 052°42'0 0.0
2015-Aug-20 14:25N 47°34' W 052°42'0 0.0
2015-Aug-20 13:31N 47°34' W 052°42'0 0.0
2015-Aug-20 10:10N 47°34' W 052°42'0 0.0
2015-Aug-20 09:28N 47°34' W 052°42'0 0.0
2015-Aug-20 08:17N 47°34' W 052°42'0 0.0
2015-Aug-20 07:30N 47°34' W 052°42'0 0.0
2015-Aug-20 06:30N 47°34' W 052°42'0 0.0
2015-Aug-20 05:31N 47°34' W 052°42'0 0.0
2015-Aug-20 04:14N 47°34' W 052°42'0 0.0
2015-Aug-20 03:32N 47°34' W 052°42'0 0.1
2015-Aug-20 02:30N 47°34' W 052°42'1010.8
2015-Aug-20 01:32N 47°31' W 052°27'  
2015-Aug-15 22:11N 47°27' W 052°15'913.3
2015-Aug-15 21:31N 47°31' W 052°27'1110.8
2015-Aug-15 20:32N 47°34' W 052°42'0 0.0
2015-Aug-15 19:33N 47°34' W 052°42'  

Dump ship's entire track history